Weather at Toowoomba Airport

Public forecast

Using degrees Celsius for public forecast. Weather courtesy of forecast.io.

Closest aviation weather report (METAR) to Toowoomba Airport

Closest report is Toowoomba Wellcamp Airport, 6.8 nm (12.5 km) W.

2024/05/22 23:00 (retrieved 18 minutes ago)

YBWW 222300Z AUTO 17002KT 9999 // NCD 15/10 Q1025 RF000/0000

Closest aviation forecast (TAF) to Toowoomba Airport

Closest forecast is Toowoomba Wellcamp Airport, 6.8 nm (12.5 km) W.

2024/05/22 18:00 (retrieved 5 hours ago)

TAF YBWW 221706Z 2218/2318 VRB03KT 9999 FEW020 FM222300 19006KT CAVOK FM230900 09004KT CAVOK